Time;durP1;ratioP1;P1;durP2;ratioP2;P2;SDS_P1;SDS_P2;PMS_P1;PMS_P2;Temp;Humidity;BMP_temperature;BMP_pressure;BME280_temperature;BME280_humidity;BME280_pressure;Samples;Min_cycle;Max_cycle;Signal;HPM_P1;HPM_P2
2021/12/18 00:44:18;;;;;;;109.35;96.13;;;3.00;99.90;;;;;;6186335;23;20191;-83
2021/12/18 00:46:47;;;;;;;117.50;105.13;;;2.90;99.90;;;;;;6187122;22;20558;-84
2021/12/18 00:49:24;;;;;;;132.98;119.90;;;2.90;99.90;;;;;;6186121;23;20199;-84
2021/12/18 00:52:12;;;;;;;121.75;108.82;;;2.90;99.90;;;;;;6186329;23;20148;-85
2021/12/18 00:55:24;;;;;;;;;;;;;;;;;;;;;
2021/12/18 00:57:57;;;;;;;110.38;96.32;;;2.80;99.90;;;;;;6186776;23;20165;-84
2021/12/18 01:01:08;;;;;;;113.05;94.38;;;2.70;99.90;;;;;;6185982;23;20187;-84
2021/12/18 01:03:37;;;;;;;106.30;89.53;;;2.70;99.90;;;;;;6261528;22;20169;-85
2021/12/18 01:06:11;;;;;;;116.45;104.50;;;2.70;99.90;;;;;;6186369;22;20541;-84
2021/12/18 01:09:00;;;;;;;126.20;113.40;;;2.70;99.90;;;;;;6186563;22;20145;-84
2021/12/18 01:12:24;;;;;;;130.10;117.15;;;2.70;99.90;;;;;;6186955;22;20142;-84
2021/12/18 01:15:17;;;;;;;121.75;109.03;;;2.70;99.90;;;;;;6263170;22;20184;-84
2021/12/18 01:27:10;;;;;;;127.75;115.43;;;2.50;99.90;;;;;;6189144;22;20146;-84
2021/12/18 01:30:05;;;;;;;144.02;130.15;;;2.50;99.90;;;;;;6290434;22;20168;-84
2021/12/18 01:33:14;;;;;;;136.65;123.93;;;2.60;99.90;;;;;;6202372;22;20505;-85
2021/12/18 01:35:59;;;;;;;149.95;136.15;;;2.60;99.90;;;;;;6189388;22;20145;-84
2021/12/18 01:38:54;;;;;;;121.32;108.90;;;2.70;99.90;;;;;;6186549;22;20153;-84
2021/12/18 01:41:50;;;;;;;;;;;;;;;;;;;;;
2021/12/18 01:51:18;;;;;;;108.97;95.90;;;3.10;99.90;;;;;;6185656;23;20145;-84
2021/12/18 01:54:12;;;;;;;107.80;92.95;;;3.10;99.90;;;;;;6199403;22;20169;-84
2021/12/18 01:56:50;;;;;;;147.38;133.70;;;3.20;99.90;;;;;;6289140;22;20156;-84
2021/12/18 01:59:48;;;;;;;122.68;110.47;;;3.30;99.90;;;;;;6185920;22;20161;-84
2021/12/18 02:02:31;;;;;;;112.43;100.43;;;3.30;99.90;;;;;;6290330;22;20145;-84
2021/12/18 02:05:25;;;;;;;117.05;105.30;;;3.40;99.90;;;;;;6185577;23;20184;-84
2021/12/18 02:08:38;;;;;;;108.53;95.60;;;3.50;99.90;;;;;;6290332;22;20454;-84
2021/12/18 02:23:49;;;;;;;98.97;72.80;;;3.80;99.90;;;;;;6185202;23;20254;-84
2021/12/18 02:26:17;;;;;;;103.72;82.13;;;3.90;99.90;;;;;;6255281;22;20146;-84
2021/12/18 02:28:57;;;;;;;103.05;77.93;;;4.00;99.90;;;;;;6308801;22;20157;-84
2021/12/18 02:31:29;;;;;;;111.18;94.93;;;4.00;99.90;;;;;;6282440;22;20153;-84
2021/12/18 02:34:38;;;;;;;123.53;110.25;;;4.10;99.90;;;;;;6290020;22;20176;-84
2021/12/18 02:37:09;;;;;;;107.93;90.07;;;4.10;99.90;;;;;;6289945;22;20181;-84
2021/12/18 02:40:43;;;;;;;106.07;94.22;;;4.20;99.90;;;;;;6288979;22;20173;-84
2021/12/18 02:42:55;;;;;;;103.38;80.40;;;4.20;99.90;;;;;;6185849;22;20211;-84
2021/12/18 02:45:44;;;;;;;106.00;89.03;;;4.30;99.90;;;;;;6185312;22;20149;-84
2021/12/18 02:49:10;;;;;;;110.88;97.65;;;4.30;99.90;;;;;;6186252;22;20188;-84
2021/12/18 02:52:31;;;;;;;109.55;81.90;;;4.30;99.90;;;;;;6217949;23;20160;-84
2021/12/18 02:55:00;;;;;;;105.97;87.72;;;4.30;99.90;;;;;;6187392;22;20184;-84
2021/12/18 02:58:27;;;;;;;127.85;114.68;;;4.30;99.90;;;;;;6186844;22;20654;-84
2021/12/18 03:00:40;;;;;;;105.70;88.45;;;4.40;99.90;;;;;;6197980;22;20192;-84
2021/12/18 03:03:16;;;;;;;102.15;80.57;;;4.40;99.90;;;;;;6291439;22;20194;-84
2021/12/18 03:24:20;;;;;;;109.90;84.70;;;4.70;99.90;;;;;;6191118;22;20176;-84
2021/12/18 03:26:52;;;;;;;110.53;93.18;;;4.70;99.90;;;;;;6291066;22;20590;-85
2021/12/18 03:29:33;;;;;;;106.57;81.35;;;4.70;99.90;;;;;;6291383;22;20141;-84
2021/12/18 03:32:02;;;;;;;107.38;87.60;;;4.80;99.90;;;;;;6290716;22;20167;-84
2021/12/18 03:34:33;;;;;;;109.03;87.60;;;4.80;99.90;;;;;;6185988;22;20175;-84
2021/12/18 03:37:05;;;;;;;114.00;91.25;;;4.90;99.90;;;;;;6185445;23;20199;-85
2021/12/18 03:39:35;;;;;;;113.07;81.22;;;4.90;99.90;;;;;;6185568;23;20173;-84
2021/12/18 03:42:08;;;;;;;108.68;85.18;;;4.90;99.90;;;;;;6185798;22;20212;-84
2021/12/18 03:44:39;;;;;;;115.97;95.50;;;4.90;99.90;;;;;;6185745;22;20162;-84
2021/12/18 03:47:35;;;;;;;120.88;92.90;;;4.90;99.90;;;;;;6185098;23;20148;-84
2021/12/18 03:50:13;;;;;;;109.40;83.63;;;4.90;99.90;;;;;;6291829;22;20168;-85
2021/12/18 03:53:14;;;;;;;115.30;97.28;;;5.00;99.90;;;;;;6186457;23;20134;-84
2021/12/18 03:56:02;;;;;;;121.20;101.10;;;5.00;99.90;;;;;;6290505;22;20156;-85
2021/12/18 03:59:00;;;;;;;114.38;89.55;;;5.00;99.90;;;;;;6271547;22;20175;-85
2021/12/18 04:01:40;;;;;;;111.60;82.78;;;5.00;99.90;;;;;;6190101;22;20168;-84
2021/12/18 04:04:12;;;;;;;116.10;102.22;;;5.00;99.90;;;;;;6185790;23;20212;-85
2021/12/18 04:06:39;;;;;;;118.85;91.93;;;5.10;99.90;;;;;;6187074;23;20525;-85
2021/12/18 04:09:10;;;;;;;118.22;83.72;;;5.00;99.90;;;;;;6186813;22;20146;-85
2021/12/18 04:11:38;;;;;;;126.82;100.93;;;5.10;99.90;;;;;;6292118;22;20149;-85
2021/12/18 04:14:12;;;;;;;117.88;96.68;;;5.10;99.90;;;;;;6186462;23;20165;-85
2021/12/18 04:16:46;;;;;;;116.90;103.88;;;5.10;99.90;;;;;;6187085;22;20172;-85
2021/12/18 04:19:18;;;;;;;113.45;82.57;;;5.10;99.90;;;;;;6187025;22;20173;-84
2021/12/18 04:21:44;;;;;;;106.82;78.53;;;5.10;99.90;;;;;;6290948;22;20175;-85
2021/12/18 04:24:13;;;;;;;120.27;91.80;;;5.10;99.90;;;;;;6187138;22;20213;-85
2021/12/18 04:26:42;;;;;;;108.38;83.50;;;5.10;99.90;;;;;;6290574;22;20498;-84
2021/12/18 04:29:16;;;;;;;112.88;93.95;;;5.10;99.90;;;;;;6288564;22;20447;-85
2021/12/18 04:32:09;;;;;;;109.10;91.78;;;5.10;99.90;;;;;;6187810;22;20137;-85
2021/12/18 04:34:50;;;;;;;117.65;102.38;;;5.10;99.90;;;;;;6187433;22;20217;-85
2021/12/18 04:37:23;;;;;;;120.10;96.88;;;5.10;99.90;;;;;;6291241;22;20220;-85
2021/12/18 04:39:52;;;;;;;108.10;89.05;;;5.10;99.90;;;;;;6290317;22;20182;-85
2021/12/18 04:42:20;;;;;;;123.38;110.40;;;5.10;99.90;;;;;;6186878;23;20217;-85
2021/12/18 04:44:49;;;;;;;109.45;91.38;;;5.10;99.90;;;;;;6291221;22;20196;-85
2021/12/18 04:47:27;;;;;;;113.38;91.43;;;5.10;99.90;;;;;;6290779;22;20620;-85
2021/12/18 04:49:55;;;;;;;127.65;111.25;;;5.10;99.90;;;;;;6291541;22;20236;-85
2021/12/18 04:52:33;;;;;;;114.13;102.00;;;5.00;99.90;;;;;;6291951;22;20158;-85
2021/12/18 04:55:21;;;;;;;118.43;105.47;;;5.00;99.90;;;;;;6290428;22;20172;-85
2021/12/18 04:57:54;;;;;;;118.55;104.35;;;5.10;99.90;;;;;;6291325;22;20160;-84
2021/12/18 05:00:22;;;;;;;110.97;89.38;;;5.10;99.90;;;;;;6186926;22;20219;-85
2021/12/18 05:02:54;;;;;;;121.38;98.10;;;5.10;99.90;;;;;;6290843;22;20145;-85
2021/12/18 05:05:27;;;;;;;111.10;88.57;;;5.10;99.90;;;;;;6290115;22;20156;-85
2021/12/18 05:08:19;;;;;;;114.38;101.32;;;5.10;99.90;;;;;;6187141;23;20126;-85
2021/12/18 05:10:47;;;;;;;110.22;86.53;;;5.20;99.90;;;;;;6186696;22;20125;-85
2021/12/18 05:13:15;;;;;;;117.93;96.63;;;5.20;99.90;;;;;;6186741;23;20220;-85
2021/12/18 05:15:47;;;;;;;112.32;93.93;;;5.20;99.90;;;;;;6186815;23;20164;-85
2021/12/18 05:18:18;;;;;;;118.65;101.22;;;5.20;99.90;;;;;;6187007;22;20134;-85
2021/12/18 05:21:11;;;;;;;;;;;;;;;;;;;;;
2021/12/18 05:23:52;;;;;;;;;;;;;;;;;;;;;
2021/12/18 05:26:25;;;;;;;112.40;89.63;;;5.30;99.90;;;;;;6186937;23;20145;-85
2021/12/18 05:29:06;;;;;;;116.00;88.28;;;5.20;99.90;;;;;;6187039;22;20137;-85
2021/12/18 05:31:34;;;;;;;125.68;106.90;;;5.20;99.90;;;;;;6289197;22;20597;-85
2021/12/18 05:34:11;;;;;;;122.45;93.95;;;5.30;99.90;;;;;;6184897;22;20209;-85
2021/12/18 05:39:32;;;;;;;119.90;101.38;;;5.20;99.90;;;;;;6155860;22;20199;-85
2021/12/18 05:42:04;;;;;;;117.28;95.07;;;5.30;99.90;;;;;;6157867;22;20150;-85
2021/12/18 05:44:33;;;;;;;116.20;97.65;;;5.30;99.90;;;;;;6260416;22;20165;-85
2021/12/18 05:47:03;;;;;;;121.80;100.50;;;5.30;99.90;;;;;;6156887;22;20142;-85
2021/12/18 05:49:29;;;;;;;127.15;112.03;;;5.20;99.90;;;;;;6158141;23;20708;-85
2021/12/18 05:51:57;;;;;;;122.30;102.77;;;5.20;99.90;;;;;;6158034;22;20150;-85
2021/12/18 05:54:46;;;;;;;115.93;96.65;;;5.20;99.90;;;;;;6260002;22;20181;-84
2021/12/18 06:00:25;;;;;;;118.25;81.28;;;5.20;99.90;;;;;;6189061;23;20244;-84
2021/12/18 06:03:08;;;;;;;119.07;103.00;;;5.20;99.90;;;;;;6162718;23;20518;-84
2021/12/18 06:06:02;;;;;;;118.38;98.00;;;5.20;99.90;;;;;;6228515;22;20491;-84
2021/12/18 06:08:49;;;;;;;;;;;;;;;;;;;;;
2021/12/18 06:11:36;;;;;;;119.90;100.28;;;5.30;99.90;;;;;;6157303;23;20165;-84
2021/12/18 06:14:49;;;;;;;120.35;97.28;;;5.40;99.90;;;;;;6285006;22;20170;-83
2021/12/18 06:17:57;;;;;;;127.68;112.22;;;5.40;99.90;;;;;;6260340;22;20174;-84
2021/12/18 06:20:27;;;;;;;122.97;97.20;;;5.40;99.90;;;;;;6163295;23;20181;-84
2021/12/18 06:23:21;;;;;;;128.10;102.10;;;5.40;99.90;;;;;;6163105;23;20153;-84
2021/12/18 06:26:20;;;;;;;126.43;95.28;;;5.40;99.90;;;;;;6162045;23;20200;-84
2021/12/18 06:29:04;;;;;;;130.30;100.60;;;5.40;99.90;;;;;;6157743;23;20517;-84
2021/12/18 06:31:54;;;;;;;123.57;99.03;;;5.50;99.90;;;;;;6164579;23;20149;-84
2021/12/18 06:34:31;;;;;;;121.68;101.20;;;5.40;99.90;;;;;;6191351;23;20161;-84
2021/12/18 06:37:06;;;;;;;125.60;95.13;;;5.40;99.90;;;;;;6180399;23;20144;-85
2021/12/18 06:39:43;;;;;;;126.55;112.50;;;5.40;99.90;;;;;;6123819;23;20538;-85
2021/12/18 06:42:09;;;;;;;134.18;109.85;;;5.40;99.90;;;;;;6122401;23;20170;-85
2021/12/18 06:44:38;;;;;;;131.23;94.00;;;5.30;99.90;;;;;;6123783;23;20158;-85
2021/12/18 06:47:09;;;;;;;145.88;119.57;;;5.30;99.90;;;;;;6124420;23;20147;-85
2021/12/18 06:49:37;;;;;;;134.55;117.80;;;5.30;99.90;;;;;;6097992;23;20158;-85
2021/12/18 06:52:03;;;;;;;136.48;119.80;;;5.30;99.90;;;;;;6124357;23;20602;-85
2021/12/18 06:54:29;;;;;;;139.63;124.78;;;5.20;99.90;;;;;;6123417;23;20170;-85
2021/12/18 06:56:55;;;;;;;164.47;147.67;;;5.20;99.90;;;;;;6098208;23;20151;-85
2021/12/18 06:59:21;;;;;;;139.27;124.10;;;5.30;99.90;;;;;;6098203;23;20418;-85
2021/12/18 07:01:52;;;;;;;129.33;114.23;;;5.30;99.90;;;;;;6098842;23;20146;-85
2021/12/18 07:04:23;;;;;;;134.02;117.72;;;5.30;99.90;;;;;;6099953;23;20914;-85
2021/12/18 07:06:52;;;;;;;166.93;150.02;;;5.20;99.90;;;;;;6100016;23;20214;-85
2021/12/18 07:09:18;;;;;;;136.57;121.80;;;5.20;99.90;;;;;;6126701;23;20613;-85
2021/12/18 07:11:44;;;;;;;157.32;141.35;;;5.20;99.90;;;;;;6101412;23;20159;-85
2021/12/18 07:14:11;;;;;;;142.27;127.17;;;5.20;99.90;;;;;;6125861;23;20173;-85
2021/12/18 07:16:58;;;;;;;136.95;122.40;;;5.20;99.90;;;;;;6099997;23;20242;-85
2021/12/18 07:19:26;;;;;;;139.48;125.13;;;5.20;99.90;;;;;;6125874;23;20163;-85
2021/12/18 07:21:55;;;;;;;136.77;122.38;;;5.20;99.90;;;;;;6125460;23;20139;-85
2021/12/18 07:24:21;;;;;;;145.20;130.23;;;5.20;99.90;;;;;;6100223;23;20508;-86
2021/12/18 07:26:55;;;;;;;143.67;129.73;;;5.10;99.90;;;;;;6100295;23;20157;-85
2021/12/18 07:29:21;;;;;;;151.48;136.10;;;5.10;99.90;;;;;;6125237;23;20368;-85
2021/12/18 07:31:49;;;;;;;150.80;136.40;;;5.20;99.90;;;;;;6126307;23;20174;-85
2021/12/18 07:34:24;;;;;;;140.90;126.60;;;5.20;99.90;;;;;;6125474;23;20212;-85
2021/12/18 07:36:50;;;;;;;147.02;132.75;;;5.10;99.90;;;;;;6126492;23;20601;-85
2021/12/18 07:39:16;;;;;;;145.93;131.13;;;5.10;99.90;;;;;;6125725;23;20178;-84
2021/12/18 07:41:47;;;;;;;173.45;157.48;;;5.10;99.90;;;;;;6127389;23;20166;-85
2021/12/18 07:44:13;;;;;;;175.60;159.65;;;5.10;99.90;;;;;;6126821;23;20155;-85
2021/12/18 07:46:43;;;;;;;165.60;150.93;;;5.20;99.90;;;;;;6126499;23;20146;-85
2021/12/18 07:49:09;;;;;;;166.82;151.35;;;5.20;99.90;;;;;;6126211;23;20131;-85
2021/12/18 07:51:41;;;;;;;168.43;152.43;;;5.20;99.90;;;;;;6126024;23;20611;-85
2021/12/18 07:54:10;;;;;;;165.75;149.82;;;5.20;99.90;;;;;;6101356;23;20406;-85
2021/12/18 07:56:36;;;;;;;166.65;151.43;;;5.20;99.90;;;;;;6101797;23;20150;-85
2021/12/18 07:59:07;;;;;;;131.23;116.57;;;5.20;99.90;;;;;;6100736;23;20175;-85
2021/12/18 08:01:47;;;;;;;125.05;110.70;;;5.20;99.90;;;;;;6100914;23;20139;-85
2021/12/18 08:04:19;;;;;;;155.98;140.70;;;5.20;99.90;;;;;;6125624;23;20487;-85
2021/12/18 08:06:45;;;;;;;138.13;124.38;;;5.20;99.90;;;;;;6099817;23;20134;-85
2021/12/18 08:09:11;;;;;;;149.13;134.67;;;5.20;99.90;;;;;;6098685;23;20539;-85
2021/12/18 08:11:37;;;;;;;136.27;122.37;;;5.20;99.90;;;;;;6124488;23;20576;-85
2021/12/18 08:14:03;;;;;;;126.30;112.97;;;5.30;99.90;;;;;;6099281;23;20394;-85
2021/12/18 08:16:28;;;;;;;139.03;124.80;;;5.20;99.90;;;;;;6126882;23;20143;-86
2021/12/18 08:18:54;;;;;;;136.17;122.40;;;5.20;99.90;;;;;;6128020;23;20174;-86
2021/12/18 08:21:20;;;;;;;146.93;132.83;;;5.20;99.90;;;;;;6127610;23;20143;-86
2021/12/18 08:23:45;;;;;;;142.30;128.23;;;5.10;99.90;;;;;;6127774;23;20557;-86
2021/12/18 08:26:11;;;;;;;158.17;143.63;;;5.10;99.90;;;;;;6128285;23;20139;-86
2021/12/18 08:28:37;;;;;;;163.83;148.70;;;5.20;99.90;;;;;;6128632;23;20150;-86
2021/12/18 08:31:03;;;;;;;160.10;145.00;;;5.30;99.90;;;;;;6127943;23;20550;-86
2021/12/18 08:33:29;;;;;;;144.13;130.47;;;5.20;99.90;;;;;;6127439;23;20198;-85
2021/12/18 08:35:57;;;;;;;143.73;129.90;;;5.30;99.90;;;;;;6101356;23;20723;-86
2021/12/18 08:38:23;;;;;;;159.30;144.32;;;5.30;99.90;;;;;;6101587;23;20409;-86
2021/12/18 08:40:50;;;;;;;174.40;158.93;;;5.30;99.90;;;;;;6129232;23;20143;-86
2021/12/18 08:43:16;;;;;;;147.68;132.85;;;5.30;99.90;;;;;;6125943;23;20163;-85
2021/12/18 08:45:45;;;;;;;165.90;151.07;;;5.30;99.90;;;;;;6122475;23;20142;-85
2021/12/18 08:48:14;;;;;;;170.52;155.40;;;5.30;99.90;;;;;;6122894;23;20670;-85
2021/12/18 08:50:40;;;;;;;172.35;157.52;;;5.30;99.90;;;;;;6097053;23;20157;-85
2021/12/18 08:53:06;;;;;;;162.40;148.10;;;5.30;99.90;;;;;;6126988;23;20163;-85
2021/12/18 08:55:31;;;;;;;156.00;141.40;;;5.40;99.90;;;;;;6129096;23;20375;-85
2021/12/18 08:57:57;;;;;;;173.93;158.60;;;5.40;99.90;;;;;;6127736;23;20668;-85
2021/12/18 09:00:24;;;;;;;141.60;128.27;;;5.50;99.90;;;;;;6101679;23;20174;-85
2021/12/18 09:02:54;;;;;;;175.60;160.07;;;5.60;99.90;;;;;;6102734;23;20147;-85
2021/12/18 09:05:21;;;;;;;183.90;168.23;;;5.60;99.90;;;;;;6102161;23;20213;-86
2021/12/18 09:07:47;;;;;;;160.93;146.73;;;5.60;99.90;;;;;;6126993;23;20204;-86
2021/12/18 09:10:14;;;;;;;163.43;148.87;;;5.60;99.90;;;;;;6127675;23;20164;-85
2021/12/18 09:12:42;;;;;;;156.15;142.15;;;5.60;99.90;;;;;;6101511;23;20157;-85
2021/12/18 09:15:09;;;;;;;169.82;154.68;;;5.60;99.90;;;;;;6102183;23;20154;-86
2021/12/18 09:17:37;;;;;;;166.43;151.57;;;5.70;99.90;;;;;;6101585;23;20498;-85
2021/12/18 09:20:04;;;;;;;170.10;155.05;;;5.80;99.90;;;;;;6100585;23;20167;-85
2021/12/18 09:22:32;;;;;;;176.05;161.02;;;5.80;99.90;;;;;;6126790;23;20139;-85
2021/12/18 09:25:08;;;;;;;171.88;156.52;;;5.80;99.90;;;;;;6125769;23;20170;-85
2021/12/18 09:27:40;;;;;;;188.48;172.40;;;5.90;99.90;;;;;;6127513;23;20233;-86
2021/12/18 09:30:10;;;;;;;187.52;171.52;;;5.80;99.90;;;;;;6127096;23;20495;-85
2021/12/18 09:32:36;;;;;;;205.07;188.38;;;5.80;99.90;;;;;;6126643;23;20139;-85
2021/12/18 09:35:06;;;;;;;153.82;139.82;;;5.80;99.90;;;;;;6127090;23;20147;-85
2021/12/18 09:37:32;;;;;;;210.05;193.55;;;5.80;99.90;;;;;;6100510;23;20158;-85
2021/12/18 09:39:58;;;;;;;162.63;147.48;;;5.90;99.90;;;;;;6125398;23;20602;-85
2021/12/18 09:42:24;;;;;;;193.60;177.18;;;6.00;99.90;;;;;;6126754;23;20200;-85
2021/12/18 09:44:52;;;;;;;169.97;155.10;;;5.90;99.90;;;;;;6126574;23;20158;-85
2021/12/18 09:47:19;;;;;;;175.68;160.15;;;5.90;99.90;;;;;;6126245;23;20843;-86
2021/12/18 09:49:46;;;;;;;191.50;175.55;;;5.90;99.90;;;;;;6100373;23;20162;-85
2021/12/18 09:52:11;;;;;;;185.07;169.18;;;6.00;99.90;;;;;;6128088;23;20143;-85
2021/12/18 09:54:38;;;;;;;195.50;179.30;;;6.00;99.90;;;;;;6101071;23;20197;-85
2021/12/18 09:57:03;;;;;;;158.63;143.93;;;6.00;99.90;;;;;;6100623;23;20849;-85
2021/12/18 09:59:29;;;;;;;163.83;149.40;;;6.00;99.90;;;;;;6126163;23;20249;-85
2021/12/18 10:01:55;;;;;;;206.37;189.77;;;6.00;99.90;;;;;;6126268;23;20366;-85
2021/12/18 10:04:25;;;;;;;210.50;193.93;;;6.00;99.90;;;;;;6126601;23;20465;-85
2021/12/18 10:06:51;;;;;;;188.63;172.80;;;6.00;99.90;;;;;;6101125;23;20382;-85
2021/12/18 10:09:17;;;;;;;184.93;169.67;;;6.00;99.90;;;;;;6126604;23;20217;-86
2021/12/18 10:11:50;;;;;;;168.93;154.40;;;6.00;99.90;;;;;;6126016;23;20272;-85
2021/12/18 10:14:17;;;;;;;177.90;163.07;;;6.00;99.90;;;;;;6100668;23;20176;-86
2021/12/18 10:16:51;;;;;;;188.80;172.95;;;6.20;99.90;;;;;;6126229;23;20150;-85
2021/12/18 10:19:35;;;;;;;189.32;172.82;;;6.20;99.90;;;;;;6126790;23;20163;-86
2021/12/18 10:22:04;;;;;;;143.90;130.02;;;6.40;99.90;;;;;;6126879;23;20161;-86
2021/12/18 10:24:32;;;;;;;178.27;162.30;;;6.30;99.90;;;;;;6101069;23;20198;-86
2021/12/18 10:26:59;;;;;;;148.32;134.05;;;6.40;99.90;;;;;;6100355;23;20153;-85
2021/12/18 10:29:33;;;;;;;132.93;119.50;;;6.30;99.90;;;;;;6126900;23;20146;-85
2021/12/18 10:32:09;;;;;;;165.93;151.32;;;6.40;99.90;;;;;;6126387;23;20127;-85
2021/12/18 10:34:36;;;;;;;152.38;138.52;;;6.40;99.90;;;;;;6126269;23;20169;-85
2021/12/18 10:37:13;;;;;;;141.32;127.60;;;6.50;99.90;;;;;;6126396;23;20150;-85
2021/12/18 10:40:03;;;;;;;128.77;115.65;;;6.60;99.90;;;;;;6126847;23;20639;-85
2021/12/18 10:42:39;;;;;;;139.43;125.18;;;6.60;99.90;;;;;;6098237;23;20604;-85
2021/12/18 10:45:21;;;;;;;113.00;86.20;;;6.50;99.90;;;;;;6126573;23;20134;-86
2021/12/18 10:47:52;;;;;;;130.73;117.25;;;6.50;99.90;;;;;;6126023;23;20209;-86
2021/12/18 10:50:40;;;;;;;127.15;109.80;;;6.50;99.90;;;;;;6099943;23;20200;-86
2021/12/18 10:53:11;;;;;;;128.30;113.57;;;6.40;99.90;;;;;;6100094;23;20178;-86
2021/12/18 10:55:43;;;;;;;147.80;133.50;;;6.60;99.90;;;;;;6126441;23;20143;-85
2021/12/18 10:58:12;;;;;;;124.25;110.93;;;6.70;99.90;;;;;;6126066;23;20165;-85
2021/12/18 11:00:40;;;;;;;118.93;106.25;;;6.60;99.90;;;;;;6099623;23;20175;-85
2021/12/18 11:03:14;;;;;;;114.13;98.88;;;6.70;99.90;;;;;;6125563;23;20158;-85
2021/12/18 11:05:40;;;;;;;139.05;125.25;;;6.70;99.90;;;;;;6125488;23;20210;-86
2021/12/18 11:08:11;;;;;;;103.50;89.53;;;6.60;99.90;;;;;;6124921;23;20142;-86
2021/12/18 11:10:42;;;;;;;102.50;73.22;;;6.80;99.90;;;;;;6099221;23;20159;-86
2021/12/18 11:15:54;;;;;;;103.47;72.68;;;7.00;99.90;;;;;;6126054;23;20141;-85
2021/12/18 11:18:20;;;;;;;99.05;60.80;;;6.90;99.90;;;;;;6126470;23;20512;-85
2021/12/18 11:20:53;;;;;;;94.90;60.40;;;6.90;99.90;;;;;;6099991;23;20162;-86
2021/12/18 11:23:46;;;;;;;96.63;63.40;;;6.90;99.90;;;;;;6100139;23;20171;-85
2021/12/18 11:26:14;;;;;;;91.95;64.18;;;6.80;99.90;;;;;;6114324;23;20153;-85
2021/12/18 11:28:43;;;;;;;91.28;60.95;;;6.70;99.90;;;;;;6100256;23;20150;-85
2021/12/18 11:31:09;;;;;;;96.20;53.85;;;6.70;99.90;;;;;;6100891;23;20174;-85
2021/12/18 11:33:39;;;;;;;96.90;65.53;;;6.70;99.90;;;;;;6099878;23;20167;-85
2021/12/18 11:36:05;;;;;;;93.55;59.22;;;6.70;99.90;;;;;;6126492;23;20165;-85
2021/12/18 11:38:33;;;;;;;99.18;59.35;;;6.90;99.90;;;;;;6125704;23;20162;-85
2021/12/18 11:41:00;;;;;;;91.13;48.47;;;6.90;99.90;;;;;;6125872;23;20142;-85
2021/12/18 11:43:38;;;;;;;93.97;56.38;;;7.00;99.90;;;;;;6126090;23;20594;-86
2021/12/18 11:46:31;;;;;;;95.53;63.35;;;6.90;99.90;;;;;;6100192;23;20510;-85
2021/12/18 11:49:03;;;;;;;96.15;53.33;;;6.90;99.90;;;;;;6126168;23;20471;-85
2021/12/18 11:51:30;;;;;;;92.03;56.78;;;6.90;99.90;;;;;;6126090;23;20135;-85
2021/12/18 11:53:57;;;;;;;93.53;57.53;;;7.00;99.90;;;;;;6099474;23;20178;-86
2021/12/18 11:56:23;;;;;;;98.18;69.47;;;7.00;99.90;;;;;;6099808;23;20151;-85
2021/12/18 11:58:50;;;;;;;97.60;65.53;;;7.10;99.90;;;;;;6125965;23;20163;-85
2021/12/18 12:01:25;;;;;;;100.45;65.55;;;7.20;99.90;;;;;;6127483;23;20193;-85
2021/12/18 12:03:50;;;;;;;98.22;67.38;;;7.20;99.90;;;;;;6126523;23;20212;-85
2021/12/18 12:06:20;;;;;;;94.47;60.40;;;7.20;99.90;;;;;;6099682;23;20607;-85
2021/12/18 12:08:46;;;;;;;95.10;63.88;;;7.20;99.90;;;;;;6100622;23;20156;-86
2021/12/18 12:11:41;;;;;;;96.50;63.60;;;7.20;99.90;;;;;;6126172;23;20147;-85
2021/12/18 12:14:15;;;;;;;91.97;54.25;;;7.10;99.90;;;;;;6095697;23;20209;-85
2021/12/18 12:16:44;;;;;;;89.97;54.92;;;7.00;99.90;;;;;;6126664;23;20139;-85
2021/12/18 12:19:16;;;;;;;94.15;60.90;;;6.90;99.90;;;;;;6100123;23;20228;-85
2021/12/18 12:21:43;;;;;;;92.47;64.03;;;7.00;99.90;;;;;;6125539;23;20678;-85
2021/12/18 12:24:13;;;;;;;91.75;55.30;;;7.00;99.90;;;;;;6100871;23;20192;-85
2021/12/18 12:26:39;;;;;;;94.65;60.78;;;7.00;99.90;;;;;;6126591;23;20429;-85
2021/12/18 12:29:07;;;;;;;90.38;55.17;;;7.20;99.90;;;;;;6126244;23;20146;-85
2021/12/18 12:31:34;;;;;;;93.40;64.32;;;7.20;99.90;;;;;;6126131;23;20147;-85
2021/12/18 12:34:23;;;;;;;102.78;69.47;;;7.20;99.90;;;;;;6125901;23;20198;-86
2021/12/18 12:36:50;;;;;;;96.38;70.63;;;7.20;99.90;;;;;;6100363;23;20147;-85
2021/12/18 12:42:12;;;;;;;98.93;70.13;;;7.40;99.90;;;;;;6119457;23;20205;-90
2021/12/18 12:44:51;;;;;;;92.85;61.35;;;7.50;99.90;;;;;;6096732;23;20177;-90
2021/12/18 12:51:55;;;;;;;;;;;;;;;;;;;;;
2021/12/18 12:55:06;;;;;;;94.78;58.13;;;7.40;99.90;;;;;;6098011;23;20269;-90
2021/12/18 13:08:10;;;;;;;102.47;62.97;;;7.30;99.90;;;;;;6150662;23;20181;-90
2021/12/18 13:11:33;;;;;;;94.95;58.00;;;7.30;99.90;;;;;;6179025;22;20146;-90
2021/12/18 13:14:47;;;;;;;97.45;61.75;;;7.40;99.90;;;;;;6095718;22;20206;-90
2021/12/18 13:18:06;;;;;;;95.70;63.53;;;7.30;99.90;;;;;;6123946;23;20201;-90
2021/12/18 13:21:53;;;;;;;;;;;;;;;;;;;;;
2021/12/18 13:29:28;;;;;;;104.35;76.20;;;7.30;99.90;;;;;;6100583;23;20454;-90
2021/12/18 13:32:27;;;;;;;102.05;76.45;;;7.30;99.90;;;;;;6097327;23;20658;-90
2021/12/18 13:49:34;;;;;;;118.07;82.28;;;7.40;99.90;;;;;;6153804;23;20161;-89
2021/12/18 13:52:18;;;;;;;;;;;;;;;;;;;;;
2021/12/18 13:54:55;;;;;;;100.68;72.70;;;7.30;99.90;;;;;;6125661;23;20302;-89
2021/12/18 13:57:58;;;;;;;101.07;77.68;;;7.20;99.90;;;;;;6120948;23;20142;-89
2021/12/18 14:00:49;;;;;;;100.32;72.20;;;7.30;99.90;;;;;;6095842;23;20201;-89
2021/12/18 14:03:52;;;;;;;103.45;75.07;;;7.30;99.90;;;;;;6098297;23;20163;-89
2021/12/18 14:07:02;;;;;;;97.07;69.45;;;7.40;99.90;;;;;;6100941;23;20564;-90
2021/12/18 14:10:06;;;;;;;95.93;69.40;;;7.40;99.90;;;;;;6093803;23;20154;-89
2021/12/18 14:24:46;;;;;;;;;;;;;;;;;;;;;
2021/12/18 14:27:17;;;;;;;103.05;82.43;;;7.40;99.90;;;;;;6127623;23;20480;-90
2021/12/18 14:30:10;;;;;;;97.78;74.60;;;7.40;99.90;;;;;;6123205;23;20154;-90
2021/12/18 14:43:17;;;;;;;99.50;68.90;;;7.50;99.90;;;;;;6023830;23;20159;-90
2021/12/18 14:46:35;;;;;;;96.35;75.70;;;7.40;99.90;;;;;;6072502;23;20147;-90
2021/12/18 14:50:06;;;;;;;99.05;79.53;;;7.40;99.90;;;;;;6073418;23;20158;-90
2021/12/18 14:53:50;;;;;;;91.35;64.32;;;7.40;99.90;;;;;;6098995;23;20226;-90
2021/12/18 14:56:43;;;;;;;;;;;;;;;;;;;;;
2021/12/18 14:59:18;;;;;;;104.85;89.75;;;7.30;99.90;;;;;;6051893;23;20261;-89
2021/12/18 15:02:27;;;;;;;;;;;;;;;;;;;;;
2021/12/18 15:05:20;;;;;;;102.03;81.75;;;7.30;99.90;;;;;;6120503;23;20289;-90
2021/12/18 15:08:31;;;;;;;;;;;;;;;;;;;;;
2021/12/18 15:11:17;;;;;;;;;;;;;;;;;;;;;
2021/12/18 15:13:54;;;;;;;108.65;88.07;;;7.30;99.90;;;;;;6120537;23;20242;-90
2021/12/18 15:17:13;;;;;;;109.93;88.97;;;7.30;99.90;;;;;;6098907;23;20139;-90
2021/12/18 15:23:14;;;;;;;105.30;77.90;;;7.40;99.90;;;;;;6079836;23;20604;-91
2021/12/18 15:26:43;;;;;;;106.40;83.95;;;7.40;99.90;;;;;;6098560;23;20153;-90
2021/12/18 15:29:35;;;;;;;116.82;87.70;;;7.40;99.90;;;;;;6013855;23;20447;-90
2021/12/18 15:32:23;;;;;;;104.32;83.03;;;7.50;99.90;;;;;;6019445;23;20152;-90
2021/12/18 15:35:15;;;;;;;114.47;86.38;;;7.40;99.90;;;;;;6095856;23;20175;-90
2021/12/18 15:37:52;;;;;;;112.28;91.78;;;7.40;99.90;;;;;;6096107;23;20155;-90
2021/12/18 15:40:35;;;;;;;115.50;90.03;;;7.40;99.90;;;;;;6127956;23;20518;-90
2021/12/18 15:43:36;;;;;;;117.40;92.63;;;7.40;99.90;;;;;;6101608;23;20242;-90
2021/12/18 15:46:28;;;;;;;112.38;79.40;;;7.30;99.90;;;;;;6067878;23;20170;-90
2021/12/18 15:49:03;;;;;;;121.47;88.38;;;7.30;99.90;;;;;;6101537;23;20236;-90
2021/12/18 15:51:59;;;;;;;111.55;77.18;;;7.30;99.90;;;;;;6102593;23;20535;-90
2021/12/18 15:58:38;;;;;;;107.53;78.03;;;7.30;99.90;;;;;;6137416;23;20181;-90
2021/12/18 16:01:02;;;;;;;110.70;86.25;;;7.20;99.90;;;;;;6115813;23;20182;-90
2021/12/18 16:03:43;;;;;;;116.70;89.65;;;7.20;99.90;;;;;;6014200;23;20172;-90
2021/12/18 16:06:34;;;;;;;;;;;;;;;;;;;;;
2021/12/18 16:09:38;;;;;;;;;;;;;;;;;;;;;
2021/12/18 16:12:25;;;;;;;106.50;69.93;;;7.10;99.90;;;;;;6038143;23;20180;-90
2021/12/18 16:15:15;;;;;;;106.47;73.50;;;7.20;99.90;;;;;;6063543;23;20171;-90
2021/12/18 16:17:54;;;;;;;113.07;81.10;;;7.20;99.90;;;;;;6101643;23;20150;-90
2021/12/18 16:20:24;;;;;;;112.18;74.35;;;7.10;99.90;;;;;;6102075;23;20170;-90
2021/12/18 16:23:03;;;;;;;;;;;;;;;;;;;;;
2021/12/18 16:25:49;;;;;;;115.57;81.53;;;7.10;99.90;;;;;;6067795;23;20234;-89